createdAt,value
2018-09-12T00:00:09.987Z,94.21
2018-09-12T00:01:09.909Z,94.31
2018-09-12T00:02:09.836Z,93.73
2018-09-12T00:03:09.762Z,93.63
2018-09-12T00:04:09.684Z,93.63
2018-09-12T00:05:09.612Z,93.73
2018-09-12T00:06:09.534Z,94.02
2018-09-12T00:07:09.459Z,93.93
2018-09-12T00:08:09.383Z,94.02
2018-09-12T00:09:09.307Z,93.73
2018-09-12T00:10:09.238Z,93.73
2018-09-12T00:11:09.156Z,93.44
2018-09-12T00:12:09.080Z,93.93
2018-09-12T00:13:09.005Z,94.21
2018-09-12T00:14:08.931Z,93.83
2018-09-12T00:15:08.855Z,94.07
2018-09-12T00:16:08.780Z,93.83
2018-09-12T00:17:08.706Z,93.73
2018-09-12T00:18:08.630Z,94.12
2018-09-12T00:19:08.555Z,93.83
2018-09-12T00:20:08.476Z,94.31
2018-09-12T00:21:08.426Z,93.83
2018-09-12T00:22:08.328Z,93.78
2018-09-12T00:23:08.251Z,93.69
2018-09-12T00:24:08.174Z,94.17
2018-09-12T00:25:08.098Z,93.78
2018-09-12T00:26:08.052Z,93.88
2018-09-12T00:27:07.966Z,93.78
2018-09-12T00:28:07.873Z,94.17
2018-09-12T00:29:07.803Z,93.98
2018-09-12T00:30:07.724Z,94.17
2018-09-12T00:31:07.648Z,93.88
2018-09-12T00:32:07.570Z,93.78
2018-09-12T00:33:07.494Z,93.78
2018-09-12T00:34:07.423Z,94.17
2018-09-12T00:35:07.352Z,94.26
2018-09-12T00:36:07.266Z,94.21
2018-09-12T00:37:07.200Z,94.12
2018-09-12T00:38:07.115Z,94.02
2018-09-12T00:39:07.040Z,94.98
2018-09-12T00:40:06.970Z,94.40
2018-09-12T00:41:06.900Z,93.93
2018-09-12T00:42:06.816Z,94.98
2018-09-12T00:43:06.741Z,93.83
2018-09-12T00:44:06.661Z,94.21
2018-09-12T00:45:06.587Z,94.50
2018-09-12T00:46:06.508Z,94.40
2018-09-12T00:47:06.438Z,94.50
2018-09-12T00:48:06.357Z,94.40
2018-09-12T00:49:06.282Z,94.21
2018-09-12T00:50:06.206Z,94.98
2018-09-12T00:51:06.132Z,94.79
2018-09-12T00:52:06.056Z,94.02
2018-09-12T00:53:05.980Z,94.02
2018-09-12T00:54:05.903Z,94.79
2018-09-12T00:55:05.828Z,94.40
2018-09-12T00:56:05.753Z,94.79
2018-09-12T00:57:05.675Z,95.65
2018-09-12T00:58:05.599Z,94.50
2018-09-12T00:59:05.524Z,94.98
2018-09-12T01:00:05.450Z,94.50
2018-09-12T01:01:05.369Z,94.60
2018-09-12T01:02:05.298Z,95.36
2018-09-12T01:03:05.220Z,94.60
2018-09-12T01:04:05.144Z,95.36
2018-09-12T01:05:05.068Z,94.60
2018-09-12T01:06:04.995Z,94.69
2018-09-12T01:07:04.916Z,94.89
2018-09-12T01:08:04.839Z,95.27
2018-09-12T01:09:04.762Z,95.17
2018-09-12T01:10:04.689Z,94.40
2018-09-12T01:11:04.609Z,95.17
2018-09-12T01:12:04.535Z,95.36
2018-09-12T01:13:04.460Z,95.46
2018-09-12T01:14:04.385Z,95.27
2018-09-12T01:15:04.312Z,95.75
2018-09-12T01:16:04.234Z,95.56
2018-09-12T01:17:04.153Z,95.56
2018-09-12T01:18:04.080Z,96.13
2018-09-12T01:19:04.007Z,95.84
2018-09-12T01:20:03.933Z,95.27
2018-09-12T01:21:03.850Z,95.75
2018-09-12T01:22:03.776Z,95.75
2018-09-12T01:23:03.699Z,95.56
2018-09-12T01:24:03.626Z,95.65
2018-09-12T01:25:03.546Z,96.13
2018-09-12T01:26:03.470Z,95.41
2018-09-12T01:27:03.398Z,95.98
2018-09-12T01:28:03.317Z,95.51
2018-09-12T01:29:03.243Z,95.89
2018-09-12T01:30:03.164Z,95.89
2018-09-12T01:31:03.091Z,95.79
2018-09-12T01:32:03.012Z,95.89
2018-09-12T01:33:02.936Z,96.18
2018-09-12T01:34:02.869Z,95.98
2018-09-12T01:35:02.787Z,95.61
2018-09-12T01:36:02.709Z,95.98
2018-09-12T01:37:02.634Z,96.18
2018-09-12T01:38:02.572Z,95.79
2018-09-12T01:39:02.481Z,95.79
2018-09-12T01:40:02.405Z,96.27
2018-09-12T01:41:04.941Z,95.98
2018-09-12T01:42:02.247Z,95.31
2018-09-12T01:43:02.179Z,95.89
2018-09-12T01:44:02.098Z,95.51
2018-09-12T01:45:02.024Z,95.31
2018-09-12T01:46:01.944Z,96.08
2018-09-12T01:47:01.873Z,96.27
2018-09-12T01:48:01.791Z,96.66
2018-09-12T01:49:01.716Z,95.98
2018-09-12T01:50:01.673Z,96.47
2018-09-12T01:51:01.564Z,95.98
2018-09-12T01:52:01.486Z,96.37
2018-09-12T01:53:01.409Z,96.08
2018-09-12T01:54:01.335Z,96.66
2018-09-12T01:55:08.910Z,96.56
2018-09-12T01:57:05.127Z,96.13
2018-09-12T01:58:04.997Z,96.80
2018-09-12T01:59:04.933Z,96.61
2018-09-12T02:00:04.843Z,96.42
2018-09-12T02:01:04.769Z,96.56
2018-09-12T02:02:04.691Z,96.75
2018-09-12T02:03:04.622Z,96.37
2018-09-12T02:04:04.539Z,97.42
2018-09-12T02:05:04.462Z,96.13
2018-09-12T02:06:04.390Z,96.89
2018-09-12T02:07:04.310Z,96.75
2018-09-12T02:08:04.232Z,97.08
2018-09-12T02:09:04.155Z,97.37
2018-09-12T02:10:04.079Z,97.18
2018-09-12T02:11:04.028Z,96.89
2018-09-12T02:12:03.928Z,96.32
2018-09-12T02:13:03.853Z,97.18
2018-09-12T02:14:03.781Z,97.37
2018-09-12T02:15:03.709Z,96.80
2018-09-12T02:16:03.619Z,97.28
2018-09-12T02:17:03.546Z,97.18
2018-09-12T02:18:03.468Z,96.99
2018-09-12T02:19:03.393Z,96.80
2018-09-12T02:20:03.316Z,97.18
2018-09-12T02:21:03.237Z,97.18
2018-09-12T02:22:03.163Z,97.37
2018-09-12T02:23:03.087Z,97.56
2018-09-12T02:24:03.010Z,97.85
2018-09-12T02:25:02.934Z,97.18
2018-09-12T02:26:02.854Z,97.28
2018-09-12T02:27:02.783Z,97.75
2018-09-12T02:28:02.702Z,97.56
2018-09-12T02:29:02.625Z,98.43
2018-09-12T02:30:02.551Z,97.75
2018-09-12T02:31:02.474Z,97.18
2018-09-12T02:32:02.398Z,97.18
2018-09-12T02:33:02.316Z,97.56
2018-09-12T02:34:02.241Z,97.13
2018-09-12T02:35:02.164Z,97.13
2018-09-12T02:36:02.091Z,97.75
2018-09-12T02:37:02.016Z,98.33
2018-09-12T02:38:01.937Z,98.33
2018-09-12T02:39:01.861Z,98.14
2018-09-12T02:40:01.789Z,98.52
2018-09-12T02:41:01.704Z,97.85
2018-09-12T02:42:01.628Z,98.04
2018-09-12T02:43:01.557Z,98.52
2018-09-12T02:44:01.473Z,98.04
2018-09-12T02:45:01.397Z,98.04
2018-09-12T02:46:01.327Z,98.38
2018-09-12T02:47:01.245Z,97.47
2018-09-12T02:48:01.168Z,97.80
2018-09-12T02:49:01.089Z,98.47
2018-09-12T02:50:01.028Z,97.18
2018-09-12T02:51:00.940Z,99.00
2018-09-12T02:52:00.862Z,98.24
2018-09-12T02:53:00.787Z,97.95
2018-09-12T02:54:00.708Z,99.48
2018-09-12T02:55:00.630Z,99.29
2018-09-12T02:56:00.552Z,97.95
2018-09-12T02:57:00.479Z,99.00
2018-09-12T02:58:00.400Z,98.14
2018-09-12T02:59:00.323Z,98.33
2018-09-12T03:00:00.250Z,98.24
2018-09-12T03:01:00.172Z,98.71
2018-09-12T03:02:00.094Z,99.29
2018-09-12T03:03:00.018Z,98.33
2018-09-12T03:03:59.939Z,98.71
2018-09-12T03:04:59.863Z,98.81
2018-09-12T03:05:59.785Z,99.00
2018-09-12T03:06:59.709Z,99.48
2018-09-12T03:07:59.750Z,98.61
2018-09-12T03:08:59.556Z,99.48
2018-09-12T03:09:59.479Z,98.61
2018-09-12T03:10:59.403Z,98.90
2018-09-12T03:11:59.329Z,98.24
2018-09-12T03:12:59.249Z,98.66
2018-09-12T03:13:59.173Z,98.43
2018-09-12T03:14:59.095Z,98.28
2018-09-12T03:15:59.019Z,99.52
2018-09-12T03:16:58.943Z,99.24
2018-09-12T03:17:58.865Z,99.24
2018-09-12T03:18:58.807Z,98.38
2018-09-12T03:19:58.710Z,98.95
2018-09-12T03:20:58.781Z,98.85
2018-09-12T03:21:58.560Z,98.66
2018-09-12T03:22:58.481Z,97.71
2018-09-12T03:23:58.407Z,98.18
2018-09-12T03:24:58.326Z,98.09
2018-09-12T03:25:58.249Z,96.94
2018-09-12T03:26:58.174Z,97.99
2018-09-12T03:27:58.095Z,97.52
2018-09-12T03:28:58.017Z,97.61
2018-09-12T03:29:57.941Z,98.38
2018-09-12T03:30:57.865Z,97.99
2018-09-12T03:31:57.791Z,97.90
2018-09-12T03:32:57.713Z,97.23
2018-09-12T03:33:57.635Z,98.57
2018-09-12T03:34:57.558Z,98.75
2018-09-12T03:35:57.482Z,99.04
2018-09-12T03:36:57.404Z,98.85
2018-09-12T03:37:57.325Z,99.62
2018-09-12T03:38:57.250Z,98.85
2018-09-12T03:39:57.172Z,99.71
2018-09-12T03:40:57.108Z,98.95
2018-09-12T03:41:57.020Z,98.95
2018-09-12T03:42:56.944Z,99.14
2018-09-12T03:43:56.867Z,99.99
2018-09-12T03:44:56.786Z,99.14
2018-09-12T03:45:56.711Z,98.75
2018-09-12T03:46:56.633Z,99.04
2018-09-12T03:47:56.573Z,98.85
2018-09-12T03:48:56.478Z,98.85
2018-09-12T03:49:56.402Z,99.04
2018-09-12T03:50:56.328Z,99.62
2018-09-12T03:51:56.250Z,98.18
2018-09-12T03:52:56.170Z,99.62
2018-09-12T03:53:56.095Z,98.85
2018-09-12T03:54:56.020Z,98.95
2018-09-12T03:55:55.940Z,98.75
2018-09-12T03:56:55.862Z,99.33
2018-09-12T03:57:55.785Z,98.95
2018-09-12T03:58:55.709Z,98.85
2018-09-12T03:59:55.632Z,99.43
2018-09-12T04:00:55.559Z,98.85
2018-09-12T04:01:55.481Z,99.14
2018-09-12T04:02:55.450Z,98.47
2018-09-12T04:03:55.322Z,98.28
2018-09-12T04:04:55.249Z,98.38
2018-09-12T04:05:55.169Z,98.47
2018-09-12T04:06:55.093Z,97.99
2018-09-12T04:07:55.016Z,98.66
2018-09-12T04:08:54.938Z,97.71
2018-09-12T04:09:54.863Z,97.28
2018-09-12T04:10:54.783Z,97.90
2018-09-12T04:11:54.707Z,98.04
2018-09-12T04:12:54.630Z,97.85
2018-09-12T04:13:54.553Z,96.99
2018-09-12T04:14:54.478Z,97.47
2018-09-12T04:15:54.398Z,98.13
2018-09-12T04:16:54.369Z,98.23
2018-09-12T04:17:54.243Z,97.99
2018-09-12T04:18:54.176Z,97.08
2018-09-12T04:19:54.089Z,98.23
2018-09-12T04:20:54.014Z,97.66
2018-09-12T04:21:53.940Z,98.18
2018-09-12T04:22:53.860Z,97.71
2018-09-12T04:23:53.781Z,98.38
2018-09-12T04:24:53.705Z,97.99
2018-09-12T04:25:53.630Z,98.28
2018-09-12T04:26:53.551Z,97.94
2018-09-12T04:27:53.473Z,96.94
2018-09-12T04:28:53.394Z,97.66
2018-09-12T04:29:53.323Z,98.71
2018-09-12T04:30:53.241Z,98.04
2018-09-12T04:31:53.163Z,98.13
2018-09-12T04:32:53.086Z,98.09
2018-09-12T04:33:53.011Z,97.94
2018-09-12T04:34:52.932Z,98.18
2018-09-12T04:35:52.857Z,98.09
2018-09-12T04:36:52.776Z,98.28
2018-09-12T04:37:52.700Z,98.47
2018-09-12T04:38:52.624Z,98.04
2018-09-12T04:39:52.548Z,98.38
2018-09-12T04:40:52.478Z,99.43
2018-09-12T04:41:52.393Z,99.52
2018-09-12T04:42:52.358Z,98.09
2018-09-12T04:43:52.238Z,98.95
2018-09-12T04:44:52.164Z,98.57
2018-09-12T04:45:52.096Z,98.09
2018-09-12T04:46:52.008Z,98.75
2018-09-12T04:47:51.927Z,98.13
2018-09-12T04:48:51.851Z,98.23
2018-09-12T04:49:51.775Z,97.75
2018-09-12T04:50:51.698Z,98.13
2018-09-12T04:51:51.620Z,97.94
2018-09-12T04:52:51.542Z,98.04
2018-09-12T04:53:51.465Z,98.13
2018-09-12T04:54:51.392Z,98.33
2018-09-12T04:55:51.317Z,98.52
2018-09-12T04:56:51.235Z,98.90
2018-09-12T04:57:51.161Z,98.61
2018-09-12T04:58:51.079Z,97.28
2018-09-12T04:59:51.037Z,98.04
2018-09-12T05:00:50.924Z,98.23
2018-09-12T05:01:50.847Z,97.94
2018-09-12T05:02:50.772Z,98.13
2018-09-12T05:03:50.693Z,97.94
2018-09-12T05:04:50.616Z,97.85
2018-09-12T05:05:50.540Z,97.94
2018-09-12T05:06:50.460Z,97.71
2018-09-12T05:07:50.381Z,97.85
2018-09-12T05:08:50.307Z,97.90
2018-09-12T05:09:50.229Z,98.28
2018-09-12T05:10:50.152Z,98.18
2018-09-12T05:11:50.077Z,97.90
2018-09-12T05:12:49.998Z,98.28
2018-09-12T05:13:49.925Z,98.18
2018-09-12T05:14:49.843Z,98.28
2018-09-12T05:15:49.787Z,98.09
2018-09-12T05:16:49.687Z,97.33
2018-09-12T05:17:49.610Z,98.66
2018-09-12T05:18:49.535Z,98.47
2018-09-12T05:19:49.458Z,97.80
2018-09-12T05:20:49.378Z,97.71
2018-09-12T05:21:49.304Z,97.99
2018-09-12T05:22:49.226Z,97.52
2018-09-12T05:23:49.147Z,97.99
2018-09-12T05:24:49.073Z,97.99
2018-09-12T05:25:48.994Z,97.80
2018-09-12T05:26:48.916Z,97.90
2018-09-12T05:27:48.843Z,97.71
2018-09-12T05:28:48.761Z,97.99
2018-09-12T05:29:48.684Z,98.28
2018-09-12T05:30:48.613Z,97.90
2018-09-12T05:31:48.534Z,97.99
2018-09-12T05:32:48.455Z,98.28
2018-09-12T05:33:48.379Z,97.61
2018-09-12T05:34:48.301Z,97.42
2018-09-12T05:35:48.223Z,97.13
2018-09-12T05:36:48.146Z,97.42
2018-09-12T05:37:48.071Z,97.33
2018-09-12T05:38:47.997Z,97.42
2018-09-12T05:39:47.923Z,97.47
2018-09-12T05:40:47.840Z,97.13
2018-09-12T05:41:47.766Z,97.42
2018-09-12T05:42:47.694Z,97.52
2018-09-12T05:43:47.615Z,97.52
2018-09-12T05:44:47.539Z,98.24
2018-09-12T05:45:47.460Z,98.14
2018-09-12T05:46:47.378Z,98.04
2018-09-12T05:47:47.302Z,98.14
2018-09-12T05:48:47.231Z,97.18
2018-09-12T05:49:47.150Z,98.04
2018-09-12T05:50:47.073Z,97.75
2018-09-12T05:51:46.997Z,98.43
2018-09-12T05:52:46.917Z,97.95
2018-09-12T05:53:46.841Z,98.52
2018-09-12T05:54:46.768Z,97.85
2018-09-12T05:55:46.689Z,98.52
2018-09-12T05:56:46.611Z,98.52
2018-09-12T05:57:46.534Z,98.14
2018-09-12T05:58:46.585Z,98.04
2018-09-12T05:59:46.381Z,97.85
2018-09-12T06:00:46.304Z,98.24
2018-09-12T06:01:46.225Z,97.66
2018-09-12T06:02:46.151Z,97.95
2018-09-12T06:03:46.108Z,98.24
2018-09-12T06:04:45.998Z,97.66
2018-09-12T06:05:45.923Z,97.80
2018-09-12T06:06:45.907Z,98.00
2018-09-12T06:07:45.769Z,98.28
2018-09-12T06:08:45.693Z,98.19
2018-09-12T06:09:45.614Z,98.00
2018-09-12T06:10:45.538Z,97.71
2018-09-12T06:11:45.501Z,97.33
2018-09-12T06:12:45.384Z,97.80
2018-09-12T06:13:45.343Z,97.80
2018-09-12T06:14:45.239Z,97.42
2018-09-12T06:15:45.152Z,98.38
2018-09-12T06:16:45.081Z,98.19
2018-09-12T06:17:45.001Z,97.90
2018-09-12T06:18:44.924Z,97.85
2018-09-12T06:19:44.854Z,97.66
2018-09-12T06:20:44.773Z,97.56
2018-09-12T06:21:44.696Z,97.66
2018-09-12T06:22:44.620Z,97.85
2018-09-12T06:23:44.546Z,97.85
2018-09-12T06:24:44.465Z,97.66
2018-09-12T06:25:44.392Z,97.47
2018-09-12T06:26:44.314Z,97.66
2018-09-12T06:27:44.239Z,97.56
2018-09-12T06:28:44.161Z,96.80
2018-09-12T06:29:44.084Z,97.95
2018-09-12T06:30:44.042Z,97.09
2018-09-12T06:31:43.935Z,96.89
2018-09-12T06:32:43.858Z,96.47
2018-09-12T06:33:43.785Z,96.27
2018-09-12T06:34:43.705Z,93.69
2018-09-12T06:35:43.626Z,94.84
2018-09-12T06:36:43.554Z,95.03
2018-09-12T06:37:43.516Z,95.22
2018-09-12T06:38:43.454Z,95.79
2018-09-12T06:39:43.328Z,95.98
2018-09-12T06:40:43.248Z,95.75
2018-09-12T06:41:43.175Z,95.26
2018-09-12T06:42:43.097Z,93.93
2018-09-12T06:43:43.019Z,94.69
2018-09-12T06:44:42.974Z,94.31
2018-09-12T06:45:42.871Z,94.89
2018-09-12T06:46:42.793Z,95.46
2018-09-12T06:47:42.716Z,94.89
2018-09-12T06:48:42.644Z,95.26
2018-09-12T06:49:42.563Z,94.98
2018-09-12T06:50:42.491Z,95.46
2018-09-12T06:51:42.418Z,95.21
2018-09-12T06:52:42.340Z,95.98
2018-09-12T06:53:42.262Z,95.60
2018-09-12T06:54:42.196Z,96.47
2018-09-12T06:55:42.110Z,95.03
2018-09-12T06:56:42.038Z,95.12
2018-09-12T06:57:41.963Z,95.60
2018-09-12T06:58:41.884Z,95.70
2018-09-12T06:59:41.809Z,95.70
2018-09-12T07:00:41.797Z,95.70
2018-09-12T07:01:41.662Z,95.51
2018-09-12T07:02:41.585Z,96.18
2018-09-12T07:03:41.508Z,95.60
2018-09-12T07:04:41.433Z,96.13
2018-09-12T07:05:41.360Z,96.32
2018-09-12T07:06:41.326Z,96.03
2018-09-12T07:07:41.272Z,96.13
2018-09-12T07:08:41.129Z,95.84
2018-09-12T07:09:41.058Z,96.32
2018-09-12T07:10:40.989Z,96.32
2018-09-12T07:11:40.905Z,96.32
2018-09-12T07:12:40.830Z,96.42
2018-09-12T07:13:40.755Z,96.42
2018-09-12T07:14:40.679Z,96.42
2018-09-12T07:15:40.605Z,96.42
2018-09-12T07:16:40.531Z,96.80
2018-09-12T07:17:40.455Z,96.94
2018-09-12T07:18:40.381Z,96.75
2018-09-12T07:19:40.306Z,96.85
2018-09-12T07:20:40.230Z,96.66
2018-09-12T07:21:40.154Z,97.28
2018-09-12T07:22:40.077Z,96.94
2018-09-12T07:23:40.004Z,96.66
2018-09-12T07:24:39.936Z,96.75
2018-09-12T07:25:39.856Z,97.04
2018-09-12T07:26:39.781Z,97.52
2018-09-12T07:27:39.735Z,96.85
2018-09-12T07:28:39.630Z,97.04
2018-09-12T07:29:39.566Z,97.24
2018-09-12T07:30:39.557Z,97.61
2018-09-12T07:31:39.407Z,96.94
2018-09-12T07:32:39.332Z,96.85
2018-09-12T07:33:39.259Z,97.24
2018-09-12T07:34:39.182Z,97.47
2018-09-12T07:35:39.111Z,96.89
2018-09-12T07:36:39.038Z,97.57
2018-09-12T07:37:38.958Z,97.28
2018-09-12T07:38:38.883Z,97.57
2018-09-12T07:39:38.807Z,97.19
2018-09-12T07:40:38.736Z,97.57
2018-09-12T07:41:38.722Z,96.89
2018-09-12T07:42:38.591Z,97.57
2018-09-12T07:43:38.512Z,97.19
2018-09-12T07:44:38.438Z,97.19
2018-09-12T07:45:38.364Z,97.57
2018-09-12T07:46:38.287Z,97.09
2018-09-12T07:47:38.214Z,97.76
2018-09-12T07:48:38.136Z,96.89
2018-09-12T07:49:38.065Z,96.99
2018-09-12T07:50:37.992Z,97.19
2018-09-12T07:51:37.915Z,97.38
2018-09-12T07:52:37.843Z,96.75
2018-09-12T07:53:37.769Z,96.89
2018-09-12T07:54:37.698Z,97.14
2018-09-12T07:55:44.827Z,96.75
2018-09-12T07:57:41.506Z,96.51
2018-09-12T07:58:41.384Z,96.66
2018-09-12T07:59:41.308Z,96.42
2018-09-12T08:00:41.258Z,96.85
2018-09-12T08:01:41.166Z,96.66
2018-09-12T08:02:41.094Z,96.66
2018-09-12T08:03:41.012Z,96.75
2018-09-12T08:04:40.945Z,96.56
2018-09-12T08:05:40.864Z,96.47
2018-09-12T08:06:40.798Z,96.37
2018-09-12T08:07:40.725Z,96.47
2018-09-12T08:08:40.700Z,96.75
2018-09-12T08:09:40.574Z,96.85
2018-09-12T08:10:40.500Z,96.75
2018-09-12T08:11:40.419Z,96.85
2018-09-12T08:12:40.343Z,96.66
2018-09-12T08:13:40.270Z,96.85
2018-09-12T08:14:40.195Z,96.75
2018-09-12T08:15:40.123Z,96.80
2018-09-12T08:16:40.047Z,96.51
2018-09-12T08:17:39.981Z,96.51
2018-09-12T08:18:39.900Z,96.70
2018-09-12T08:19:39.828Z,96.51
2018-09-12T08:20:39.751Z,96.61
2018-09-12T08:21:39.683Z,96.22
2018-09-12T08:22:39.604Z,96.03
2018-09-12T08:23:39.528Z,96.51
2018-09-12T08:24:39.455Z,96.22
2018-09-12T08:25:39.381Z,96.13
2018-09-12T08:26:39.349Z,96.32
2018-09-12T08:27:39.232Z,95.89
2018-09-12T08:28:39.159Z,96.47
2018-09-12T08:29:39.111Z,95.98
2018-09-12T08:30:39.017Z,96.17
2018-09-12T08:31:38.953Z,96.47
2018-09-12T08:32:38.866Z,96.37
2018-09-12T08:33:38.792Z,95.89
2018-09-12T08:34:38.718Z,96.17
2018-09-12T08:35:38.649Z,96.56
2018-09-12T08:36:38.574Z,96.37
2018-09-12T08:37:38.498Z,95.89
2018-09-12T08:38:38.424Z,95.89
2018-09-12T08:39:38.351Z,95.74
2018-09-12T08:40:38.275Z,95.36
2018-09-12T08:41:38.201Z,95.94
2018-09-12T08:42:38.231Z,95.17
2018-09-12T08:43:38.059Z,95.17
2018-09-12T08:44:37.981Z,95.07
2018-09-12T08:45:37.912Z,95.45
2018-09-12T08:46:37.835Z,95.17
2018-09-12T08:47:37.764Z,95.45
2018-09-12T08:48:37.686Z,95.26
2018-09-12T08:49:37.616Z,94.78
2018-09-12T08:50:37.539Z,94.30
2018-09-12T08:51:37.467Z,94.78
2018-09-12T08:52:37.392Z,95.07
2018-09-12T08:53:37.324Z,94.06
2018-09-12T08:54:37.246Z,94.54
2018-09-12T08:55:37.171Z,94.34
2018-09-12T08:56:37.125Z,93.67
2018-09-12T08:57:37.027Z,94.34
2018-09-12T08:58:36.952Z,94.25
2018-09-12T08:59:36.879Z,94.25
2018-09-12T09:00:36.805Z,94.15
2018-09-12T09:01:36.768Z,94.06
2018-09-12T09:02:36.665Z,94.82
2018-09-12T09:03:36.643Z,94.34
2018-09-12T09:04:36.518Z,94.34
2018-09-12T09:05:36.442Z,94.25
2018-09-12T09:06:36.366Z,94.44
2018-09-12T09:07:36.293Z,94.29
2018-09-12T09:08:36.221Z,94.15
2018-09-12T09:09:36.146Z,93.91
2018-09-12T09:10:36.165Z,94.29
2018-09-12T09:11:36.004Z,94.49
2018-09-12T09:12:35.928Z,94.10
2018-09-12T09:13:35.859Z,94.10
2018-09-12T09:14:35.785Z,93.91
2018-09-12T09:15:35.733Z,93.52
2018-09-12T09:16:35.633Z,94.49
2018-09-12T09:17:35.566Z,94.20
2018-09-12T09:18:35.490Z,94.10
2018-09-12T09:19:35.418Z,94.34
2018-09-12T09:20:35.342Z,94.06
2018-09-12T09:21:35.271Z,94.15
2018-09-12T09:22:35.203Z,93.66
2018-09-12T09:23:35.184Z,93.48
2018-09-12T09:24:35.052Z,93.38
2018-09-12T09:25:34.984Z,94.15
2018-09-12T09:26:34.909Z,93.57
2018-09-12T09:27:34.838Z,93.57
2018-09-12T09:28:34.765Z,93.57
2018-09-12T09:29:34.692Z,93.48
2018-09-12T09:30:34.620Z,93.28
2018-09-12T09:31:34.546Z,93.33
2018-09-12T09:32:34.478Z,92.99
2018-09-12T09:33:34.402Z,93.13
2018-09-12T09:34:34.344Z,92.94
2018-09-12T09:35:34.416Z,92.08
2018-09-12T09:36:34.185Z,92.36
2018-09-12T09:37:34.116Z,93.04
2018-09-12T09:38:34.042Z,92.56
2018-09-12T09:39:33.963Z,93.13
2018-09-12T09:40:33.893Z,92.75
2018-09-12T09:41:33.828Z,92.46
2018-09-12T09:42:33.754Z,92.08
2018-09-12T09:43:33.677Z,92.36
2018-09-12T09:44:33.608Z,92.85
2018-09-12T09:45:33.529Z,93.18
2018-09-12T09:46:33.456Z,92.99
2018-09-12T09:47:33.385Z,92.80
2018-09-12T09:48:33.313Z,93.28
2018-09-12T09:49:33.242Z,93.18
2018-09-12T09:50:33.173Z,92.99
2018-09-12T09:51:33.096Z,92.89
2018-09-12T09:52:33.030Z,93.04
2018-09-12T09:53:32.956Z,93.04
2018-09-12T09:54:32.937Z,92.16
2018-09-12T09:55:32.814Z,92.84
2018-09-12T09:56:32.738Z,92.07
2018-09-12T09:57:32.665Z,92.07
2018-09-12T09:58:32.594Z,91.88
2018-09-12T09:59:32.522Z,91.49
2018-09-12T10:00:32.458Z,91.39
2018-09-12T10:01:32.378Z,91.92
2018-09-12T10:02:32.313Z,92.02
2018-09-12T10:03:32.234Z,91.83
2018-09-12T10:04:32.171Z,92.02
2018-09-12T10:05:32.091Z,90.95
2018-09-12T10:06:32.021Z,91.29
2018-09-12T10:07:31.950Z,90.37
2018-09-12T10:08:31.879Z,91.19
2018-09-12T10:09:31.805Z,91.00
2018-09-12T10:10:31.770Z,90.71
2018-09-12T10:11:31.662Z,89.65
2018-09-12T10:12:31.624Z,90.13
2018-09-12T10:13:31.519Z,91.00
2018-09-12T10:14:31.461Z,91.00
2018-09-12T10:15:31.383Z,91.00
2018-09-12T10:16:31.305Z,90.27
2018-09-12T10:17:31.236Z,90.56
2018-09-12T10:18:31.161Z,90.27
2018-09-12T10:19:31.096Z,89.11
2018-09-12T10:20:31.018Z,88.73
2018-09-12T10:21:30.950Z,88.92
2018-09-12T10:22:30.889Z,88.29
2018-09-12T10:23:30.812Z,87.13
2018-09-12T10:24:30.749Z,84.13
2018-09-12T10:25:30.667Z,84.52
2018-09-12T10:26:30.602Z,84.32
2018-09-12T10:27:30.523Z,85.39
2018-09-12T10:28:30.454Z,87.51
2018-09-12T10:29:30.381Z,87.55
2018-09-12T10:30:30.314Z,86.49
2018-09-12T10:31:30.239Z,85.72
2018-09-12T10:32:30.170Z,84.46
2018-09-12T10:33:30.100Z,84.94
2018-09-12T10:34:30.031Z,84.56
2018-09-12T10:35:29.958Z,84.46
2018-09-12T10:36:29.892Z,83.88
2018-09-12T10:37:29.823Z,83.98
2018-09-12T10:38:29.744Z,83.20
2018-09-12T10:39:29.674Z,81.40
2018-09-12T10:40:29.603Z,80.15
2018-09-12T10:41:29.537Z,76.76
2018-09-12T10:42:29.461Z,74.43
2018-09-12T10:43:29.393Z,76.31
2018-09-12T10:44:29.330Z,80.38
2018-09-12T10:45:29.253Z,81.35
2018-09-12T10:46:29.182Z,79.90
2018-09-12T10:47:29.117Z,73.41
2018-09-12T10:48:29.045Z,74.08
2018-09-12T10:49:28.973Z,73.25
2018-09-12T10:50:28.923Z,71.02
2018-09-12T10:51:28.887Z,66.75
2018-09-12T10:52:28.761Z,67.14
2018-09-12T10:53:28.696Z,68.60
2018-09-12T10:54:28.623Z,68.05
2018-09-12T10:55:28.555Z,66.20
2018-09-12T10:56:28.482Z,66.20
2018-09-12T10:57:28.415Z,65.82
2018-09-12T10:58:28.347Z,63.20
2018-09-12T10:59:28.278Z,63.40
2018-09-12T11:00:28.222Z,62.62
2018-09-12T11:01:28.155Z,62.82
2018-09-12T11:02:28.064Z,60.49
2018-09-12T11:03:27.995Z,59.16
2018-09-12T11:04:28.117Z,59.45
2018-09-12T11:05:27.860Z,60.42
2018-09-12T11:06:27.785Z,60.32
2018-09-12T11:07:27.716Z,60.03
2018-09-12T11:08:27.647Z,59.19
2018-09-12T11:09:27.581Z,59.28
2018-09-12T11:10:27.511Z,61.52
2018-09-12T11:11:27.440Z,61.32
2018-09-12T11:12:27.370Z,56.98
2018-09-12T11:13:27.302Z,56.60
2018-09-12T11:14:27.233Z,55.04
2018-09-12T11:15:27.164Z,54.46
2018-09-12T11:16:27.098Z,54.17
2018-09-12T11:17:27.029Z,54.56
2018-09-12T11:18:26.959Z,53.78
2018-09-12T11:19:26.894Z,54.56
2018-09-12T11:20:26.820Z,56.60
2018-09-12T11:21:26.752Z,55.65
2018-09-12T11:22:26.684Z,56.14
2018-09-12T11:23:26.613Z,58.18
2018-09-12T11:24:26.548Z,59.54
2018-09-12T11:25:26.477Z,57.50
2018-09-12T11:26:26.414Z,56.36
2018-09-12T11:27:26.340Z,54.90
2018-09-12T11:28:26.273Z,56.56
2018-09-12T11:29:26.207Z,59.11
2018-09-12T11:30:26.138Z,55.32
2018-09-12T11:31:26.128Z,55.13
2018-09-12T11:32:26.009Z,58.82
2018-09-12T11:33:25.935Z,59.72
2018-09-12T11:34:25.865Z,60.02
2018-09-12T11:35:25.798Z,55.64
2018-09-12T11:36:25.733Z,51.39
2018-09-12T11:37:25.689Z,51.39
2018-09-12T11:38:25.682Z,50.63
2018-09-12T11:39:25.538Z,50.95
2018-09-12T11:40:25.485Z,49.51
2018-09-12T11:41:25.408Z,49.66
2018-09-12T11:42:25.344Z,47.75
2018-09-12T11:43:25.284Z,46.82
2018-09-12T11:44:25.259Z,47.16
2018-09-12T11:45:25.157Z,45.83
2018-09-12T11:46:25.094Z,45.39
2018-09-12T11:47:25.037Z,42.08
2018-09-12T11:48:24.980Z,40.33
2018-09-12T11:49:24.915Z,40.25
2018-09-12T11:50:24.853Z,39.19
2018-09-12T11:51:24.797Z,39.03
2018-09-12T11:52:24.736Z,40.23
2018-09-12T11:53:24.676Z,37.30
2018-09-12T11:54:24.627Z,36.15
2018-09-12T11:55:24.565Z,36.36
2018-09-12T11:56:24.526Z,35.40
2018-09-12T11:57:24.447Z,33.84
2018-09-12T11:58:24.399Z,33.74
2018-09-12T11:59:24.331Z,33.36
2018-09-12T12:00:24.277Z,31.02
2018-09-12T12:01:24.234Z,29.64
2018-09-12T12:02:24.164Z,28.94
2018-09-12T12:03:24.108Z,28.94
2018-09-12T12:04:24.067Z,27.47
2018-09-12T12:05:23.999Z,26.97
2018-09-12T12:06:23.957Z,27.84
2018-09-12T12:07:23.889Z,28.16
2018-09-12T12:08:23.831Z,27.38
2018-09-12T12:09:23.835Z,28.38
2018-09-12T12:10:23.722Z,28.11
2018-09-12T12:11:23.668Z,28.53
2018-09-12T12:12:23.625Z,27.16
2018-09-12T12:13:23.559Z,26.58
2018-09-12T12:14:23.503Z,28.09
2018-09-12T12:15:23.515Z,27.11
2018-09-12T12:16:23.397Z,26.43
2018-09-12T12:17:23.350Z,26.04
2018-09-12T12:18:23.294Z,24.17
2018-09-12T12:19:23.241Z,23.57
2018-09-12T12:20:23.184Z,24.37
2018-09-12T12:21:23.152Z,25.36
2018-09-12T12:22:23.077Z,24.28
2018-09-12T12:23:23.024Z,23.99
2018-09-12T12:24:22.970Z,22.60
2018-09-12T12:25:22.923Z,22.20
2018-09-12T12:26:22.865Z,22.10
2018-09-12T12:27:22.815Z,21.89
2018-09-12T12:28:22.762Z,21.19
2018-09-12T12:29:22.710Z,22.28
2018-09-12T12:30:22.668Z,21.86
2018-09-12T12:31:22.608Z,22.14
2018-09-12T12:32:22.560Z,23.74
2018-09-12T12:33:22.504Z,23.25
2018-09-12T12:34:22.455Z,21.76
2018-09-12T12:35:22.455Z,21.26
2018-09-12T12:36:22.357Z,21.25
2018-09-12T12:37:22.322Z,20.84
2018-09-12T12:38:22.255Z,21.63
2018-09-12T12:39:22.206Z,22.53
2018-09-12T12:40:22.143Z,22.74
2018-09-12T12:41:22.146Z,21.67
2018-09-12T12:42:22.038Z,21.08
2018-09-12T12:43:21.990Z,20.78
2018-09-12T12:44:21.937Z,21.37
2018-09-12T12:45:21.886Z,20.78
2018-09-12T12:46:21.834Z,21.98
2018-09-12T12:47:21.781Z,21.08
2018-09-12T12:48:21.732Z,21.49
2018-09-12T12:49:21.687Z,20.00
2018-09-12T12:50:21.634Z,21.20
2018-09-12T12:51:21.680Z,21.33
2018-09-12T12:52:21.531Z,19.54
2018-09-12T12:53:21.480Z,20.65